sensor_id;sensor_type;location;lat;lon;timestamp;pressure;altitude;pressure_sealevel;temperature;humidity
21824;BME280;11074;48.596;9.238;2024-03-23T00:53:58;97530.09;;;9.66;80.45
21824;BME280;11074;48.596;9.238;2024-03-23T00:56:23;97532.72;;;9.56;81.63
21824;BME280;11074;48.596;9.238;2024-03-23T00:58:49;97522.13;;;9.77;80.97
21824;BME280;11074;48.596;9.238;2024-03-23T01:01:15;97529.91;;;9.93;80.58
21824;BME280;11074;48.596;9.238;2024-03-23T01:03:40;97519.78;;;9.95;81.16
21824;BME280;11074;48.596;9.238;2024-03-23T01:06:05;97526.16;;;9.89;80.82
21824;BME280;11074;48.596;9.238;2024-03-23T01:08:31;97517.09;;;9.95;81.42
21824;BME280;11074;48.596;9.238;2024-03-23T01:10:57;97507.78;;;9.98;82.07
21824;BME280;11074;48.596;9.238;2024-03-23T01:13:22;97504.03;;;10.09;81.87
21824;BME280;11074;48.596;9.238;2024-03-23T01:15:49;97500.34;;;10.20;81.24
21824;BME280;11074;48.596;9.238;2024-03-23T01:18:15;97498.47;;;10.30;80.89
21824;BME280;11074;48.596;9.238;2024-03-23T01:20:40;97493.91;;;10.06;81.34
21824;BME280;11074;48.596;9.238;2024-03-23T01:23:05;97489.13;;;10.18;81.81
21824;BME280;11074;48.596;9.238;2024-03-23T01:25:30;97489.13;;;10.18;81.71
21824;BME280;11074;48.596;9.238;2024-03-23T01:27:56;97480.84;;;10.40;80.56
21824;BME280;11074;48.596;9.238;2024-03-23T01:30:21;97480.34;;;10.38;80.38
21824;BME280;11074;48.596;9.238;2024-03-23T01:32:46;97474.72;;;10.39;80.14
21824;BME280;11074;48.596;9.238;2024-03-23T01:35:12;97486.44;;;10.13;79.15
21824;BME280;11074;48.596;9.238;2024-03-23T01:37:37;97477.81;;;9.86;80.99
21824;BME280;11074;48.596;9.238;2024-03-23T01:40:03;97477.31;;;10.04;81.18
21824;BME280;11074;48.596;9.238;2024-03-23T01:42:29;97469.31;;;9.99;81.23
21824;BME280;11074;48.596;9.238;2024-03-23T01:44:54;97467.44;;;9.94;80.95
21824;BME280;11074;48.596;9.238;2024-03-23T01:47:19;97462.84;;;9.74;82.11
21824;BME280;11074;48.596;9.238;2024-03-23T01:49:45;97458.28;;;9.55;81.84
21824;BME280;11074;48.596;9.238;2024-03-23T01:52:10;97459.63;;;9.52;82.76
21824;BME280;11074;48.596;9.238;2024-03-23T01:54:36;97460.75;;;9.87;83.38
21824;BME280;11074;48.596;9.238;2024-03-23T01:57:01;97443.41;;;9.84;81.91
21824;BME280;11074;48.596;9.238;2024-03-23T01:59:27;97446.59;;;9.81;82.61
21824;BME280;11074;48.596;9.238;2024-03-23T02:01:52;97444.47;;;9.93;81.81
21824;BME280;11074;48.596;9.238;2024-03-23T02:04:17;97447.41;;;9.87;82.13
21824;BME280;11074;48.596;9.238;2024-03-23T02:06:42;97436.22;;;9.95;81.95
21824;BME280;11074;48.596;9.238;2024-03-23T02:09:08;97428.72;;;9.87;82.76
21824;BME280;11074;48.596;9.238;2024-03-23T02:11:33;97433.00;;;9.98;81.28
21824;BME280;11074;48.596;9.238;2024-03-23T02:13:58;97426.59;;;10.09;81.03
21824;BME280;11074;48.596;9.238;2024-03-23T02:16:24;97415.97;;;10.14;80.97
21824;BME280;11074;48.596;9.238;2024-03-23T02:18:49;97409.53;;;10.20;80.63
21824;BME280;11074;48.596;9.238;2024-03-23T02:21:15;97416.47;;;10.16;80.93
21824;BME280;11074;48.596;9.238;2024-03-23T02:23:40;97412.47;;;10.33;80.86
21824;BME280;11074;48.596;9.238;2024-03-23T02:26:06;97398.31;;;10.28;80.63
21824;BME280;11074;48.596;9.238;2024-03-23T02:28:31;97391.63;;;10.15;81.70
21824;BME280;11074;48.596;9.238;2024-03-23T02:30:56;97387.84;;;10.11;80.77
21824;BME280;11074;48.596;9.238;2024-03-23T02:33:22;97391.91;;;10.19;81.16
21824;BME280;11074;48.596;9.238;2024-03-23T02:35:48;97394.28;;;10.00;81.54
21824;BME280;11074;48.596;9.238;2024-03-23T02:38:14;97398.53;;;9.66;82.26
21824;BME280;11074;48.596;9.238;2024-03-23T02:40:39;97396.94;;;9.70;82.66
21824;BME280;11074;48.596;9.238;2024-03-23T02:43:05;97383.34;;;9.87;82.09
21824;BME280;11074;48.596;9.238;2024-03-23T02:45:30;97398.53;;;10.06;81.70
21824;BME280;11074;48.596;9.238;2024-03-23T02:47:56;97389.25;;;10.14;81.25
21824;BME280;11074;48.596;9.238;2024-03-23T02:50:22;97381.47;;;10.17;80.47
21824;BME280;11074;48.596;9.238;2024-03-23T02:52:48;97382.81;;;10.00;82.01
21824;BME280;11074;48.596;9.238;2024-03-23T02:55:13;97380.13;;;10.05;81.67
21824;BME280;11074;48.596;9.238;2024-03-23T02:57:39;97378.53;;;9.94;82.63
21824;BME280;11074;48.596;9.238;2024-03-23T03:00:05;97372.94;;;9.95;82.64
21824;BME280;11074;48.596;9.238;2024-03-23T03:02:32;97369.47;;;9.90;82.09
21824;BME280;11074;48.596;9.238;2024-03-23T03:04:57;97363.03;;;9.81;83.05
21824;BME280;11074;48.596;9.238;2024-03-23T03:07:23;97368.66;;;9.84;83.37
21824;BME280;11074;48.596;9.238;2024-03-23T03:09:48;97361.16;;;9.96;83.99
21824;BME280;11074;48.596;9.238;2024-03-23T03:12:13;97366.00;;;9.89;82.37
21824;BME280;11074;48.596;9.238;2024-03-23T03:14:38;97363.84;;;10.01;82.23
21824;BME280;11074;48.596;9.238;2024-03-23T03:17:04;97360.91;;;9.88;82.88
21824;BME280;11074;48.596;9.238;2024-03-23T03:19:30;97360.38;;;9.81;82.88
21824;BME280;11074;48.596;9.238;2024-03-23T03:21:55;97353.97;;;9.97;82.57
21824;BME280;11074;48.596;9.238;2024-03-23T03:24:21;97366.50;;;10.06;82.30
21824;BME280;11074;48.596;9.238;2024-03-23T03:26:46;97360.13;;;9.92;82.09
21824;BME280;11074;48.596;9.238;2024-03-23T03:29:11;97364.38;;;9.98;82.45
21824;BME280;11074;48.596;9.238;2024-03-23T03:31:38;97365.97;;;9.99;82.71
21824;BME280;11074;48.596;9.238;2024-03-23T03:34:03;97363.03;;;10.01;82.55
21824;BME280;11074;48.596;9.238;2024-03-23T03:36:29;97362.50;;;9.94;83.10
21824;BME280;11074;48.596;9.238;2024-03-23T03:38:54;97362.78;;;9.92;83.48
21824;BME280;11074;48.596;9.238;2024-03-23T03:41:19;97365.97;;;9.99;82.79
21824;BME280;11074;48.596;9.238;2024-03-23T03:43:45;97354.75;;;9.67;84.05
21824;BME280;11074;48.596;9.238;2024-03-23T03:46:10;97356.66;;;9.77;83.74
21824;BME280;11074;48.596;9.238;2024-03-23T03:48:36;97353.19;;;9.71;84.12
21824;BME280;11074;48.596;9.238;2024-03-23T03:51:01;97342.75;;;9.64;84.01
21824;BME280;11074;48.596;9.238;2024-03-23T03:53:27;97334.75;;;9.69;83.92
21824;BME280;11074;48.596;9.238;2024-03-23T03:55:52;97331.28;;;9.69;84.15
21824;BME280;11074;48.596;9.238;2024-03-23T03:58:17;97320.34;;;9.81;83.21
21824;BME280;11074;48.596;9.238;2024-03-23T04:00:42;97315.50;;;9.37;85.09
21824;BME280;11074;48.596;9.238;2024-03-23T04:03:08;97319.25;;;9.56;84.06
21824;BME280;11074;48.596;9.238;2024-03-23T04:05:33;97303.53;;;9.60;84.30
21824;BME280;11074;48.596;9.238;2024-03-23T04:07:58;97297.63;;;9.53;85.18
21824;BME280;11074;48.596;9.238;2024-03-23T04:10:24;97300.88;;;9.60;85.06
21824;BME280;11074;48.596;9.238;2024-03-23T04:12:50;97286.47;;;9.66;83.88
21824;BME280;11074;48.596;9.238;2024-03-23T04:15:15;97269.63;;;9.45;84.89
21824;BME280;11074;48.596;9.238;2024-03-23T04:17:41;97271.50;;;9.45;84.58
21824;BME280;11074;48.596;9.238;2024-03-23T04:20:08;97260.81;;;9.30;85.83
21824;BME280;11074;48.596;9.238;2024-03-23T04:22:36;97252.56;;;9.36;85.93
21824;BME280;11074;48.596;9.238;2024-03-23T04:25:02;97252.81;;;9.20;86.34
21824;BME280;11074;48.596;9.238;2024-03-23T04:27:34;97232.81;;;9.17;86.48
21824;BME280;11074;48.596;9.238;2024-03-23T04:29:59;97234.16;;;9.09;86.40
21824;BME280;11074;48.596;9.238;2024-03-23T04:32:26;97214.94;;;9.07;86.09
21824;BME280;11074;48.596;9.238;2024-03-23T04:34:51;97217.06;;;8.95;86.79
21824;BME280;11074;48.596;9.238;2024-03-23T04:37:17;97209.88;;;9.16;86.86
21824;BME280;11074;48.596;9.238;2024-03-23T04:39:43;97216.53;;;9.19;86.78
21824;BME280;11074;48.596;9.238;2024-03-23T04:42:08;97201.63;;;9.23;86.73
21824;BME280;11074;48.596;9.238;2024-03-23T04:44:33;97197.88;;;9.03;85.85
21824;BME280;11074;48.596;9.238;2024-03-23T04:47:00;97213.09;;;9.18;87.24
21824;BME280;11074;48.596;9.238;2024-03-23T04:49:25;97197.91;;;9.29;85.15
21824;BME280;11074;48.596;9.238;2024-03-23T04:51:51;97203.22;;;9.24;86.20
21824;BME280;11074;48.596;9.238;2024-03-23T04:54:16;97187.75;;;9.36;86.23
21824;BME280;11074;48.596;9.238;2024-03-23T04:56:41;97180.78;;;9.45;85.37
21824;BME280;11074;48.596;9.238;2024-03-23T04:59:07;97189.06;;;9.48;85.72
21824;BME280;11074;48.596;9.238;2024-03-23T05:01:32;97198.94;;;9.48;85.35
21824;BME280;11074;48.596;9.238;2024-03-23T05:03:58;97207.72;;;9.63;85.30
21824;BME280;11074;48.596;9.238;2024-03-23T05:06:24;97213.34;;;9.57;85.69
21824;BME280;11074;48.596;9.238;2024-03-23T05:08:49;97219.75;;;9.41;86.16
21824;BME280;11074;48.596;9.238;2024-03-23T05:11:15;97221.88;;;9.19;87.17
21824;BME280;11074;48.596;9.238;2024-03-23T05:13:41;97239.22;;;9.77;87.70
21824;BME280;11074;48.596;9.238;2024-03-23T05:16:06;97249.78;;;10.12;88.17
21824;BME280;11074;48.596;9.238;2024-03-23T05:18:31;97239.84;;;10.43;86.65
21824;BME280;11074;48.596;9.238;2024-03-23T05:20:57;97241.88;;;10.66;86.59
21824;BME280;11074;48.596;9.238;2024-03-23T05:23:24;97259.19;;;10.78;86.71
21824;BME280;11074;48.596;9.238;2024-03-23T05:25:49;97280.47;;;10.99;88.50
21824;BME280;11074;48.596;9.238;2024-03-23T05:28:14;97272.38;;;11.14;88.75
21824;BME280;11074;48.596;9.238;2024-03-23T05:30:39;97258.09;;;11.23;91.22
21824;BME280;11074;48.596;9.238;2024-03-23T05:33:05;97248.47;;;11.27;92.17
21824;BME280;11074;48.596;9.238;2024-03-23T05:35:30;97249.78;;;11.30;92.63
21824;BME280;11074;48.596;9.238;2024-03-23T05:37:57;97259.38;;;11.36;92.04
21824;BME280;11074;48.596;9.238;2024-03-23T05:40:23;97284.56;;;11.30;94.84
21824;BME280;11074;48.596;9.238;2024-03-23T05:42:48;97295.56;;;11.28;94.32
21824;BME280;11074;48.596;9.238;2024-03-23T05:45:14;97331.66;;;11.31;94.04
21824;BME280;11074;48.596;9.238;2024-03-23T05:47:39;97345.03;;;11.31;95.23
21824;BME280;11074;48.596;9.238;2024-03-23T05:50:05;97341.56;;;11.30;95.82
21824;BME280;11074;48.596;9.238;2024-03-23T05:52:30;97361.34;;;11.29;95.72
21824;BME280;11074;48.596;9.238;2024-03-23T05:54:55;97357.94;;;11.19;98.79
21824;BME280;11074;48.596;9.238;2024-03-23T05:57:20;97351.19;;;11.26;98.17
21824;BME280;11074;48.596;9.238;2024-03-23T05:59:46;97346.66;;;11.27;97.09
21824;BME280;11074;48.596;9.238;2024-03-23T06:02:11;97353.06;;;11.31;96.55
21824;BME280;11074;48.596;9.238;2024-03-23T06:04:36;97355.50;;;11.22;95.41
21824;BME280;11074;48.596;9.238;2024-03-23T06:07:02;97368.38;;;11.20;97.43
21824;BME280;11074;48.596;9.238;2024-03-23T06:09:27;97378.28;;;11.20;96.00
21824;BME280;11074;48.596;9.238;2024-03-23T06:11:56;97385.75;;;11.18;96.00
21824;BME280;11074;48.596;9.238;2024-03-23T06:14:21;97401.03;;;11.17;97.38
21824;BME280;11074;48.596;9.238;2024-03-23T06:16:47;97403.69;;;11.17;94.70
21824;BME280;11074;48.596;9.238;2024-03-23T06:19:13;97412.25;;;11.19;95.83
21824;BME280;11074;48.596;9.238;2024-03-23T06:21:43;97415.22;;;11.08;96.51
21824;BME280;11074;48.596;9.238;2024-03-23T06:24:08;97427.78;;;11.07;95.07
21824;BME280;11074;48.596;9.238;2024-03-23T06:26:34;97431.78;;;11.15;94.74
21824;BME280;11074;48.596;9.238;2024-03-23T06:28:59;97440.34;;;11.17;95.10
21824;BME280;11074;48.596;9.238;2024-03-23T06:31:24;97452.63;;;11.18;93.06
21824;BME280;11074;48.596;9.238;2024-03-23T06:33:50;97468.41;;;11.19;92.83
21824;BME280;11074;48.596;9.238;2024-03-23T06:36:16;97465.78;;;11.14;93.69
21824;BME280;11074;48.596;9.238;2024-03-23T06:38:41;97459.31;;;11.15;91.44
21824;BME280;11074;48.596;9.238;2024-03-23T06:41:06;97479.38;;;11.18;90.95
21824;BME280;11074;48.596;9.238;2024-03-23T06:43:32;97467.06;;;11.22;90.42
21824;BME280;11074;48.596;9.238;2024-03-23T06:45:57;97478.84;;;11.21;90.01
21824;BME280;11074;48.596;9.238;2024-03-23T06:48:22;97467.34;;;11.20;89.63
21824;BME280;11074;48.596;9.238;2024-03-23T06:50:48;97474.34;;;11.11;88.87
21824;BME280;11074;48.596;9.238;2024-03-23T06:53:14;97488.50;;;11.17;89.44
21824;BME280;11074;48.596;9.238;2024-03-23T06:55:39;97510.44;;;11.14;88.43
21824;BME280;11074;48.596;9.238;2024-03-23T06:58:04;97513.91;;;11.14;90.05
21824;BME280;11074;48.596;9.238;2024-03-23T07:00:31;97513.38;;;11.22;89.92
21824;BME280;11074;48.596;9.238;2024-03-23T07:03:00;97519.50;;;11.18;89.07
21824;BME280;11074;48.596;9.238;2024-03-23T07:05:25;97514.97;;;11.13;89.28
21824;BME280;11074;48.596;9.238;2024-03-23T07:07:50;97502.13;;;11.15;88.81
21824;BME280;11074;48.596;9.238;2024-03-23T07:10:16;97522.47;;;11.11;89.38
21824;BME280;11074;48.596;9.238;2024-03-23T07:12:41;97510.94;;;11.21;88.33
21824;BME280;11074;48.596;9.238;2024-03-23T07:15:07;97517.38;;;11.25;86.55
21824;BME280;11074;48.596;9.238;2024-03-23T07:17:33;97513.09;;;11.19;86.78
21824;BME280;11074;48.596;9.238;2024-03-23T07:20:00;97524.59;;;11.19;87.23
21824;BME280;11074;48.596;9.238;2024-03-23T07:22:26;97527.00;;;11.16;87.28
21824;BME280;11074;48.596;9.238;2024-03-23T07:24:51;97513.66;;;11.06;86.14
21824;BME280;11074;48.596;9.238;2024-03-23T07:27:17;97525.69;;;11.13;85.42
21824;BME280;11074;48.596;9.238;2024-03-23T07:29:42;97532.38;;;11.06;84.37
21824;BME280;11074;48.596;9.238;2024-03-23T07:32:07;97550.06;;;11.02;86.37
21824;BME280;11074;48.596;9.238;2024-03-23T07:34:33;97553.22;;;11.14;86.12
21824;BME280;11074;48.596;9.238;2024-03-23T07:36:58;97555.91;;;11.14;85.62
21824;BME280;11074;48.596;9.238;2024-03-23T07:39:23;97559.88;;;11.26;85.65
21824;BME280;11074;48.596;9.238;2024-03-23T07:41:49;97543.88;;;11.11;84.57
21824;BME280;11074;48.596;9.238;2024-03-23T07:44:15;97558.34;;;11.00;85.07
21824;BME280;11074;48.596;9.238;2024-03-23T07:46:40;97573.56;;;11.00;84.61
21824;BME280;11074;48.596;9.238;2024-03-23T07:49:05;97588.03;;;10.99;84.10
21824;BME280;11074;48.596;9.238;2024-03-23T07:51:31;97605.41;;;11.11;82.95
21824;BME280;11074;48.596;9.238;2024-03-23T07:53:56;97609.97;;;10.95;81.35
21824;BME280;11074;48.596;9.238;2024-03-23T07:56:21;97601.13;;;11.10;83.45
21824;BME280;11074;48.596;9.238;2024-03-23T07:58:48;97613.69;;;11.25;83.36
21824;BME280;11074;48.596;9.238;2024-03-23T08:01:15;97619.31;;;11.33;83.15
21824;BME280;11074;48.596;9.238;2024-03-23T08:03:42;97623.31;;;11.36;82.27
21824;BME280;11074;48.596;9.238;2024-03-23T08:06:18;97634.28;;;11.24;82.26
21824;BME280;11074;48.596;9.238;2024-03-23T08:08:46;97644.72;;;11.21;81.97
21824;BME280;11074;48.596;9.238;2024-03-23T08:11:12;97639.13;;;11.12;81.85
21824;BME280;11074;48.596;9.238;2024-03-23T08:13:39;97643.13;;;11.20;82.80
21824;BME280;11074;48.596;9.238;2024-03-23T08:16:04;97653.28;;;11.13;82.34
21824;BME280;11074;48.596;9.238;2024-03-23T08:18:34;97666.13;;;11.16;81.86
21824;BME280;11074;48.596;9.238;2024-03-23T08:21:01;97689.66;;;11.09;81.18
21824;BME280;11074;48.596;9.238;2024-03-23T08:23:31;97692.88;;;11.21;80.85
21824;BME280;11074;48.596;9.238;2024-03-23T08:26:02;97710.53;;;11.17;81.88
21824;BME280;11074;48.596;9.238;2024-03-23T08:28:28;97719.91;;;11.19;82.00
21824;BME280;11074;48.596;9.238;2024-03-23T08:30:55;97728.22;;;11.28;81.40
21824;BME280;11074;48.596;9.238;2024-03-23T08:33:21;97724.44;;;11.24;80.44
21824;BME280;11074;48.596;9.238;2024-03-23T08:36:03;97709.72;;;11.11;79.07
21824;BME280;11074;48.596;9.238;2024-03-23T08:38:29;97714.78;;;11.08;80.18
21824;BME280;11074;48.596;9.238;2024-03-23T08:41:01;97721.75;;;10.93;78.49
21824;BME280;11074;48.596;9.238;2024-03-23T08:43:35;97741.75;;;10.81;80.60
21824;BME280;11074;48.596;9.238;2024-03-23T08:46:10;97761.88;;;11.04;80.37
21824;BME280;11074;48.596;9.238;2024-03-23T08:51:07;97780.09;;;11.12;78.09
21824;BME280;11074;48.596;9.238;2024-03-23T08:53:33;97780.91;;;11.17;78.23
21824;BME280;11074;48.596;9.238;2024-03-23T08:55:59;97804.69;;;11.14;77.99
21824;BME280;11074;48.596;9.238;2024-03-23T08:58:26;97806.81;;;11.02;76.71
21824;BME280;11074;48.596;9.238;2024-03-23T09:00:52;97818.03;;;10.99;75.12
21824;BME280;11074;48.596;9.238;2024-03-23T09:03:18;97815.38;;;11.09;75.75
21824;BME280;11074;48.596;9.238;2024-03-23T09:05:43;97815.16;;;11.20;74.77
21824;BME280;11074;48.596;9.238;2024-03-23T09:08:09;97815.69;;;11.27;72.96
21824;BME280;11074;48.596;9.238;2024-03-23T09:10:40;97819.44;;;11.21;73.47
21824;BME280;11074;48.596;9.238;2024-03-23T09:13:06;97827.47;;;11.26;72.77
21824;BME280;11074;48.596;9.238;2024-03-23T09:15:36;97843.28;;;11.43;71.48
21824;BME280;11074;48.596;9.238;2024-03-23T09:18:03;97838.97;;;11.27;69.92
21824;BME280;11074;48.596;9.238;2024-03-23T09:20:28;97839.25;;;11.25;70.10
21824;BME280;11074;48.596;9.238;2024-03-23T09:22:54;97851.22;;;11.03;68.49
21824;BME280;11074;48.596;9.238;2024-03-23T09:25:19;97856.56;;;11.03;67.57
21824;BME280;11074;48.596;9.238;2024-03-23T09:27:47;97850.66;;;10.95;66.58
21824;BME280;11074;48.596;9.238;2024-03-23T09:30:13;97854.16;;;10.96;69.84
21824;BME280;11074;48.596;9.238;2024-03-23T09:32:39;97857.91;;;11.10;69.87
21824;BME280;11074;48.596;9.238;2024-03-23T09:35:04;97849.66;;;11.12;67.96
21824;BME280;11074;48.596;9.238;2024-03-23T09:37:30;97846.19;;;11.31;69.96
21824;BME280;11074;48.596;9.238;2024-03-23T09:39:55;97837.34;;;11.16;66.71
21824;BME280;11074;48.596;9.238;2024-03-23T09:42:20;97834.72;;;11.41;68.52
21824;BME280;11074;48.596;9.238;2024-03-23T09:44:46;97821.94;;;11.78;67.61
21824;BME280;11074;48.596;9.238;2024-03-23T09:47:14;97815.50;;;11.84;66.57
21824;BME280;11074;48.596;9.238;2024-03-23T09:49:39;97814.97;;;11.72;67.63
21824;BME280;11074;48.596;9.238;2024-03-23T09:52:05;97813.91;;;11.93;66.93
21824;BME280;11074;48.596;9.238;2024-03-23T09:54:30;97817.09;;;12.00;66.00
21824;BME280;11074;48.596;9.238;2024-03-23T09:56:57;97820.31;;;11.92;66.90
21824;BME280;11074;48.596;9.238;2024-03-23T09:59:23;97827.84;;;11.75;65.89
21824;BME280;11074;48.596;9.238;2024-03-23T10:01:49;97837.41;;;11.41;65.55
21824;BME280;11074;48.596;9.238;2024-03-23T10:09:36;97831.47;;;11.24;69.19
21824;BME280;11074;48.596;9.238;2024-03-23T10:12:20;97840.00;;;11.16;70.21
21824;BME280;11074;48.596;9.238;2024-03-23T10:14:46;97830.94;;;11.22;68.31
21824;BME280;11074;48.596;9.238;2024-03-23T10:17:22;97821.56;;;11.09;66.71
21824;BME280;11074;48.596;9.238;2024-03-23T10:19:52;97820.75;;;11.19;66.57
21824;BME280;11074;48.596;9.238;2024-03-23T10:22:19;97814.88;;;11.22;67.52
21824;BME280;11074;48.596;9.238;2024-03-23T10:24:44;97803.66;;;11.30;66.00
21824;BME280;11074;48.596;9.238;2024-03-23T10:27:15;97806.34;;;11.45;65.70
21824;BME280;11074;48.596;9.238;2024-03-23T10:29:40;97815.72;;;11.42;64.54
21824;BME280;11074;48.596;9.238;2024-03-23T10:32:10;97813.31;;;11.41;62.51
21824;BME280;11074;48.596;9.238;2024-03-23T10:34:36;97803.16;;;11.53;62.07
21824;BME280;11074;48.596;9.238;2024-03-23T10:37:02;97808.03;;;11.76;62.48
21824;BME280;11074;48.596;9.238;2024-03-23T10:39:31;97809.63;;;11.77;60.84
21824;BME280;11074;48.596;9.238;2024-03-23T10:41:57;97801.88;;;11.76;61.92
21824;BME280;11074;48.596;9.238;2024-03-23T10:44:24;97804.25;;;11.92;60.71
21824;BME280;11074;48.596;9.238;2024-03-23T10:46:52;97802.66;;;11.96;58.68
21824;BME280;11074;48.596;9.238;2024-03-23T10:49:23;97792.44;;;12.13;57.84
21824;BME280;11074;48.596;9.238;2024-03-23T10:51:51;97795.38;;;12.12;57.96
21824;BME280;11074;48.596;9.238;2024-03-23T10:54:16;97786.56;;;12.06;58.41
21824;BME280;11074;48.596;9.238;2024-03-23T10:56:42;97801.88;;;11.76;57.92
21824;BME280;11074;48.596;9.238;2024-03-23T10:59:08;97801.00;;;11.50;59.54
21824;BME280;11074;48.596;9.238;2024-03-23T11:01:34;97857.72;;;11.37;63.84
21824;BME280;11074;48.596;9.238;2024-03-23T11:03:59;97896.31;;;10.84;70.51
21824;BME280;11074;48.596;9.238;2024-03-23T11:06:35;97925.34;;;9.97;76.94
21824;BME280;11074;48.596;9.238;2024-03-23T11:09:00;97908.50;;;9.16;80.61
21824;BME280;11074;48.596;9.238;2024-03-23T11:11:26;97909.38;;;9.22;83.95
21824;BME280;11074;48.596;9.238;2024-03-23T11:13:55;97899.53;;;9.00;81.38
21824;BME280;11074;48.596;9.238;2024-03-23T11:16:24;97887.03;;;9.28;83.19
21824;BME280;11074;48.596;9.238;2024-03-23T11:18:52;97874.31;;;9.61;81.56
21824;BME280;11074;48.596;9.238;2024-03-23T11:21:53;97876.66;;;9.85;82.89
21824;BME280;11074;48.596;9.238;2024-03-23T11:24:20;97885.03;;;10.30;82.43
21824;BME280;11074;48.596;9.238;2024-03-23T11:26:46;97878.25;;;10.54;80.50
21824;BME280;11074;48.596;9.238;2024-03-23T11:29:15;97865.03;;;10.84;78.91
21824;BME280;11074;48.596;9.238;2024-03-23T11:31:54;97881.72;;;11.02;77.10
21824;BME280;11074;48.596;9.238;2024-03-23T11:34:20;97882.22;;;10.93;76.74
21824;BME280;11074;48.596;9.238;2024-03-23T11:36:46;97878.72;;;10.93;77.97
21824;BME280;11074;48.596;9.238;2024-03-23T11:39:18;97890.75;;;10.90;78.06
21824;BME280;11074;48.596;9.238;2024-03-23T11:41:52;97895.03;;;10.96;75.48
21824;BME280;11074;48.596;9.238;2024-03-23T11:44:21;97893.19;;;11.02;77.01
21824;BME280;11074;48.596;9.238;2024-03-23T11:46:47;97898.81;;;11.01;74.60
21824;BME280;11074;48.596;9.238;2024-03-23T11:51:48;97892.59;;;10.85;74.26
21824;BME280;11074;48.596;9.238;2024-03-23T11:54:14;97888.81;;;10.81;73.90
21824;BME280;11074;48.596;9.238;2024-03-23T11:56:39;97896.63;;;10.87;73.37
21824;BME280;11074;48.596;9.238;2024-03-23T11:59:04;97893.66;;;10.84;72.54
21824;BME280;11074;48.596;9.238;2024-03-23T12:01:31;97885.78;;;10.62;71.53
21824;BME280;11074;48.596;9.238;2024-03-23T12:03:56;97888.78;;;10.71;71.13
21824;BME280;11074;48.596;9.238;2024-03-23T12:06:21;97888.91;;;10.49;70.02
21824;BME280;11074;48.596;9.238;2024-03-23T12:08:47;97882.28;;;10.57;69.89
21824;BME280;11074;48.596;9.238;2024-03-23T12:11:17;97868.19;;;10.66;67.61
21824;BME280;11074;48.596;9.238;2024-03-23T12:13:45;97870.09;;;10.81;67.20
21824;BME280;11074;48.596;9.238;2024-03-23T12:16:17;97871.75;;;10.87;67.88
21824;BME280;11074;48.596;9.238;2024-03-23T12:18:44;97869.88;;;10.82;67.25
21824;BME280;11074;48.596;9.238;2024-03-23T12:21:10;97868.56;;;10.90;67.05
21824;BME280;11074;48.596;9.238;2024-03-23T12:23:38;97862.38;;;10.84;65.44
21824;BME280;11074;48.596;9.238;2024-03-23T12:26:04;97871.16;;;10.75;66.18
21824;BME280;11074;48.596;9.238;2024-03-23T12:28:29;97874.56;;;10.60;66.73
21824;BME280;11074;48.596;9.238;2024-03-23T12:30:54;97871.34;;;10.58;67.14
21824;BME280;11074;48.596;9.238;2024-03-23T12:33:20;97866.00;;;10.58;67.01
21824;BME280;11074;48.596;9.238;2024-03-23T12:35:46;97864.69;;;10.66;66.19
21824;BME280;11074;48.596;9.238;2024-03-23T12:38:11;97864.03;;;10.49;65.07
21824;BME280;11074;48.596;9.238;2024-03-23T12:40:36;97880.66;;;10.51;65.90
21824;BME280;11074;48.596;9.238;2024-03-23T12:43:02;97883.34;;;10.56;67.01
21824;BME280;11074;48.596;9.238;2024-03-23T12:45:27;97885.13;;;10.40;67.74
21824;BME280;11074;48.596;9.238;2024-03-23T12:47:52;97887.06;;;10.50;67.36
21824;BME280;11074;48.596;9.238;2024-03-23T12:50:19;97876.31;;;10.96;68.47
21824;BME280;11074;48.596;9.238;2024-03-23T12:52:44;97878.19;;;10.91;67.52
21824;BME280;11074;48.596;9.238;2024-03-23T12:55:10;97876.25;;;10.76;67.45
21824;BME280;11074;48.596;9.238;2024-03-23T12:57:35;97863.84;;;10.55;68.08
21824;BME280;11074;48.596;9.238;2024-03-23T13:00:01;97866.22;;;10.57;68.50
21824;BME280;11074;48.596;9.238;2024-03-23T13:02:28;97864.22;;;10.27;69.70
21824;BME280;11074;48.596;9.238;2024-03-23T13:04:53;97865.28;;;10.31;69.75
21824;BME280;11074;48.596;9.238;2024-03-23T13:07:20;97870.56;;;10.63;68.97
21824;BME280;11074;48.596;9.238;2024-03-23T13:09:46;97860.59;;;10.48;69.06
21824;BME280;11074;48.596;9.238;2024-03-23T13:12:11;97860.41;;;10.70;69.83
21824;BME280;11074;48.596;9.238;2024-03-23T13:14:38;97855.31;;;10.58;69.28
21824;BME280;11074;48.596;9.238;2024-03-23T13:17:03;97855.91;;;10.28;70.97
21824;BME280;11074;48.596;9.238;2024-03-23T13:19:29;97847.16;;;10.38;70.04
21824;BME280;11074;48.596;9.238;2024-03-23T13:21:59;97863.66;;;10.30;69.00
21824;BME280;11074;48.596;9.238;2024-03-23T13:24:25;97864.22;;;10.27;69.89
21824;BME280;11074;48.596;9.238;2024-03-23T13:26:51;97883.25;;;10.09;70.05
21824;BME280;11074;48.596;9.238;2024-03-23T13:29:18;97877.88;;;10.04;74.28
21824;BME280;11074;48.596;9.238;2024-03-23T13:31:43;97865.63;;;9.44;76.63
21824;BME280;11074;48.596;9.238;2024-03-23T13:34:08;97874.22;;;9.51;78.50
21824;BME280;11074;48.596;9.238;2024-03-23T13:36:34;97890.72;;;10.07;78.22
21824;BME280;11074;48.596;9.238;2024-03-23T13:39:00;97850.44;;;10.50;76.13
21824;BME280;11074;48.596;9.238;2024-03-23T13:41:26;97846.66;;;11.03;75.09
21824;BME280;11074;48.596;9.238;2024-03-23T13:43:52;97835.47;;;11.16;71.98
21824;BME280;11074;48.596;9.238;2024-03-23T13:46:18;97808.25;;;11.60;70.42
21824;BME280;11074;48.596;9.238;2024-03-23T13:48:43;97793.00;;;11.85;66.95
21824;BME280;11074;48.596;9.238;2024-03-23T13:51:08;97790.28;;;12.26;67.12
21824;BME280;11074;48.596;9.238;2024-03-23T13:53:33;97783.50;;;12.53;67.32
21824;BME280;11074;48.596;9.238;2024-03-23T13:55:59;97778.28;;;12.82;66.10
21824;BME280;11074;48.596;9.238;2024-03-23T13:58:24;97786.38;;;12.72;64.43
21824;BME280;11074;48.596;9.238;2024-03-23T14:00:52;97789.72;;;12.29;63.16